Terminal Aerodrome Forecast
Issued by NWS

Home | Current Version | Previous Version | Text Only | Print | Product List | Glossary Off
Versions: 1 2 3 4 5 6 7 8 9 10 11 12 13 14 15 16 17 18 19 20

000
FTUS43 KIWX 241120
TAFSBN
TAF
KSBN 241120Z 2412/2512 17010KT P6SM BKN020 BKN040
      TEMPO 2414/2418 3SM SHRA BKN020
     FM241800 20012G22KT P6SM SCT030 BKN060
      TEMPO 2420/2422 4SM TSRA OVC030CB
     FM250200 20007KT 3SM SHRA VCTS SCT025 OVC070CB
     FM250700 22006KT P6SM SCT025 OVC110=

USA.gov is the U.S. government's official web portal to all federal, state and local government web resources and services.